Monday, November 20, 2017, 4:35 AM EST
Back to Local

KEWN, New Bern, Craven County Regional Airport

Location: New Bern, NC, United States Lat: 35.068
Local Time: 4:35 AM EST ( 9:35 GMT) Lon: -77.047
Time Zone: US/Eastern Elev: 16 ft

Show me the last for .
Show Decoded

2017-11-20 03:54 METAR KEWN 200854Z AUTO 32003KT 10SM CLR 02/M02 A3015 RMK AO2 SLP209 T00171017
                 51018 =
2017-11-20 02:54 METAR KEWN 200754Z AUTO 00000KT 10SM CLR 03/M01 A3014 RMK AO2 SLP204 T00281011 =
2017-11-20 01:54 METAR KEWN 200654Z AUTO 29004KT 10SM CLR 03/M01 A3011 RMK AO2 SLP196 T00331011 =
2017-11-20 00:54 METAR KEWN 200554Z AUTO 32003KT 10SM CLR 04/M02 A3010 RMK AO2 SLP191 T00391017
                 10100 20039 51020 =
2017-11-19 23:54 METAR KEWN 200454Z AUTO 32005KT 10SM CLR 05/M02 A3008 RMK AO2 SLP187 T00501017
                 402000050 =
2017-11-19 22:54 METAR KEWN 200354Z AUTO 33008KT 10SM CLR 07/M02 A3006 RMK AO2 SLP179 T00671017 =
2017-11-19 21:54 METAR KEWN 200254Z AUTO 32010G16KT 10SM CLR 08/M02 A3004 RMK AO2 SLP171
                 T00831017 51040 =
2017-11-19 20:54 METAR KEWN 200154Z 33007KT 10SM CLR 09/M01 A3000 RMK AO2 SLP157 T00891006 =
2017-11-19 19:54 METAR KEWN 200054Z 32005KT 10SM CLR 07/01 A2996 RMK AO2 SLP146 T00720011 =
2017-11-19 18:54 METAR KEWN 192354Z AUTO 28003KT 10SM CLR 10/01 A2992 RMK AO2 SLP130 T01000011
                 10167 20100 51040 =
2017-11-19 17:54 METAR KEWN 192254Z AUTO 31008KT 10SM CLR 12/00 A2988 RMK AO2 SLP118 T01170000 =
2017-11-19 16:54 METAR KEWN 192154Z AUTO 30007KT 10SM CLR 13/02 A2984 RMK AO2 SLP103 T01280017 =
2017-11-19 15:54 METAR KEWN 192054Z AUTO 31013G17KT 10SM CLR 15/02 A2980 RMK AO2 SLP090 T01500022
                 53015 =
2017-11-19 14:54 METAR KEWN 191954Z AUTO 32010G19KT 10SM CLR 16/02 A2976 RMK AO2 SLP078 T01610022
                 =
2017-11-19 13:54 METAR KEWN 191854Z 32015G21KT 10SM CLR 16/03 A2975 RMK AO2 SLP074 T01610028 =
2017-11-19 12:54 METAR KEWN 191754Z 32012G21KT 10SM CLR 16/04 A2975 RMK AO2 SLP075 60000
                 T01610039 10172 20144 58002 =
2017-11-19 11:54 METAR KEWN 191654Z 32017G23KT 10SM CLR 16/05 A2977 RMK AO2 SLP080 T01560050 =
2017-11-19 10:54 METAR KEWN 191554Z 31013G21KT 10SM CLR 15/06 A2978 RMK AO2 SLP083 T01500056 =
2017-11-19 09:54 METAR KEWN 191454Z 30011KT 10SM FEW036 SCT055 BKN070 15/09 A2976 RMK AO2 SLP077
                 60000 T01500089 53036 =
2017-11-19 08:54 METAR KEWN 191354Z 29008KT 10SM OVC047 15/13 A2973 RMK AO2 PK WND 29031/1308
                 WSHFT 1300 RAB09E34 SLP065 P0000 T01500133 =
2017-11-19 08:20 METAR KEWN 191320Z 29009G20KT 7SM -RA SCT032 OVC040 16/14 A2972 RMK AO2 PK WND
                 29031/1308 WSHFT 1300 RAB09 PRESRR P0000 T01560139 =
2017-11-19 07:54 METAR KEWN 191254Z 23009G16KT 10SM SCT044 BKN055 OVC120 17/16 A2967 RMK AO2
                 RAE03 SLP046 P0000 T01720156 =
2017-11-19 06:54 METAR KEWN 191154Z 23010KT 6SM -RA BR OVC070 17/16 A2965 RMK AO2 PK WND
                 22027/1108 RAB17 SLP041 P0003 60003 70003 T01670156 10200 20167 53009 =
2017-11-19 05:54 METAR KEWN 191054Z 23015G28KT 10SM BKN036 OVC065 19/14 A2962 RMK AO2 PK WND
                 20028/1049 SLP029 T01940139 =
2017-11-19 04:54 METAR KEWN 190954Z AUTO 21014G24KT 10SM SCT045 BKN060 OVC080 19/14 A2961 RMK AO2
                 PK WND 21027/0901 SLP027 T01890139 =

Support USWX by starting your Amazon purchase here.